Time;durP1;ratioP1;P1;durP2;ratioP2;P2;SDS_P1;SDS_P2;PMS_P1;PMS_P2;Temp;Humidity;BMP_temperature;BMP_pressure;BME280_temperature;BME280_humidity;BME280_pressure;Samples;Min_cycle;Max_cycle;Signal;HPM_P1;HPM_P2
2023/05/20 00:01:57;;;;;;;;;17.33;15.67;;;;;15.16;53.21;101587.56;4940520;28;47245;-76
2023/05/20 00:04:23;;;;;;;;;13.00;13.00;;;;;15.32;53.16;101633.25;4940343;28;46104;-77
2023/05/20 00:06:48;;;;;;;;;16.67;15.67;;;;;15.29;52.97;101614.81;4958149;28;45494;-78
2023/05/20 00:09:13;;;;;;;;;19.33;18.00;;;;;15.22;53.50;101603.03;4957396;28;45378;-78
2023/05/20 00:11:39;;;;;;;;;15.00;15.00;;;;;15.39;52.96;101622.75;4940394;28;48649;-79
2023/05/20 00:14:05;;;;;;;;;18.00;15.00;;;;;15.38;52.88;101618.38;4958302;28;45448;-79
2023/05/20 00:16:30;;;;;;;;;19.00;17.00;;;;;15.27;53.10;101591.84;4958529;28;45351;-77
2023/05/20 00:18:56;;;;;;;;;17.33;15.00;;;;;15.25;52.90;101589.31;4940750;28;45395;-79
2023/05/20 00:21:21;;;;;;;;;18.33;16.33;;;;;15.32;52.84;101606.47;4942244;28;47467;-76
2023/05/20 00:23:47;;;;;;;;;24.33;22.33;;;;;14.93;52.75;101543.47;4942394;28;45332;-79
2023/05/20 00:26:12;;;;;;;;;21.00;18.00;;;;;15.42;52.99;101617.94;4941092;28;45297;-77
2023/05/20 00:28:38;;;;;;;;;21.33;17.00;;;;;15.06;52.67;101574.25;4959682;28;45505;-78
2023/05/20 00:31:03;;;;;;;;;17.67;16.33;;;;;15.43;52.89;101613.44;4943081;28;48985;-76
2023/05/20 00:33:29;;;;;;;;;18.33;17.33;;;;;15.24;52.67;101578.78;4942352;28;45352;-78
2023/05/20 00:35:55;;;;;;;;;19.00;17.00;;;;;15.50;52.82;101619.84;4946513;28;45469;-77
2023/05/20 00:38:20;;;;;;;;;19.67;16.67;;;;;15.46;52.64;101619.31;4959157;28;45193;-79
2023/05/20 00:40:45;;;;;;;;;17.67;16.33;;;;;15.48;52.79;101614.66;4942094;28;47637;-78
2023/05/20 00:43:11;;;;;;;;;26.00;20.33;;;;;15.51;52.70;101619.69;4942778;28;49827;-78
2023/05/20 00:45:37;;;;;;;;;16.33;16.33;;;;;14.91;52.50;101509.69;4941529;28;45428;-79
2023/05/20 00:48:04;;;;;;;;;20.33;17.33;;;;;15.55;52.48;101608.66;4958321;28;45630;-79
2023/05/20 00:50:30;;;;;;;;;20.67;18.33;;;;;15.30;52.92;101584.34;4940872;28;46718;-77
2023/05/20 00:52:57;;;;;;;;;16.33;16.33;;;;;14.63;52.75;101486.66;4944658;28;46033;-77
2023/05/20 00:55:23;;;;;;;;;19.67;16.67;;;;;15.29;53.08;101598.72;4945329;28;45431;-77
2023/05/20 00:57:49;;;;;;;;;15.67;14.00;;;;;15.08;52.90;101560.72;4944908;28;45234;-76
2023/05/20 01:00:15;;;;;;;;;18.67;17.33;;;;;15.13;53.07;101567.28;4941193;28;47045;-78
2023/05/20 01:02:40;;;;;;;;;19.33;17.00;;;;;15.21;53.10;101586.09;4943230;28;45572;-79
2023/05/20 01:05:06;;;;;;;;;22.33;18.67;;;;;15.12;53.14;101570.94;4942093;28;45498;-79
2023/05/20 01:07:32;;;;;;;;;18.33;17.67;;;;;14.63;53.49;101497.38;4940816;28;45507;-77
2023/05/20 01:09:59;;;;;;;;;19.00;15.00;;;;;14.90;53.49;101550.00;4939954;28;45332;-78
2023/05/20 01:12:34;;;;;;;;;17.67;16.00;;;;;15.15;53.33;101591.22;4939808;28;45321;-80
2023/05/20 01:15:07;;;;;;;;;19.33;17.33;;;;;15.06;53.51;101586.81;4958274;28;45386;-77
2023/05/20 01:17:37;;;;;;;;;14.00;14.00;;;;;15.02;53.49;101591.63;4958142;28;45474;-77
2023/05/20 01:20:04;;;;;;;;;14.33;10.00;;;;;15.00;53.87;101590.91;4957238;28;46669;-79
2023/05/20 01:22:30;;;;;;;;;18.00;17.00;;;;;14.82;53.92;101579.38;4960597;28;45333;-77
2023/05/20 01:24:55;;;;;;;;;16.00;13.00;;;;;14.57;54.10;101543.44;4965716;28;45405;-78
2023/05/20 01:27:22;;;;;;;;;15.33;14.00;;;;;14.73;54.12;101559.69;4943945;28;45444;-79
2023/05/20 01:29:52;;;;;;;;;19.33;15.33;;;;;14.61;54.24;101544.81;4945217;28;47479;-79
2023/05/20 01:32:23;;;;;;;;;14.33;11.33;;;;;14.77;54.81;101579.78;4962779;28;45451;-80
2023/05/20 01:34:51;;;;;;;;;19.00;17.67;;;;;14.63;53.90;101550.06;4962520;28;45261;-78
2023/05/20 01:37:18;;;;;;;;;18.67;14.33;;;;;14.86;53.96;101581.59;4962065;28;45239;-77
2023/05/20 01:39:45;;;;;;;;;14.67;13.67;;;;;14.70;54.36;101559.16;4944636;28;48683;-78
2023/05/20 01:42:12;;;;;;;;;17.33;15.00;;;;;14.61;54.45;101547.50;4962776;28;45534;-78
2023/05/20 01:44:38;;;;;;;;;14.67;14.67;;;;;14.67;54.78;101557.63;4962263;28;45536;-78
2023/05/20 01:47:04;;;;;;;;;20.00;15.33;;;;;14.78;54.34;101568.09;4961431;28;45225;-76
2023/05/20 01:49:29;;;;;;;;;17.67;16.67;;;;;14.85;54.24;101577.22;4961401;28;46838;-77
2023/05/20 01:51:56;;;;;;;;;17.67;14.33;;;;;14.71;54.44;101548.28;4943308;28;45335;-77
2023/05/20 01:54:22;;;;;;;;;19.67;18.67;;;;;14.95;54.25;101565.59;4960978;28;45480;-77
2023/05/20 01:56:48;;;;;;;;;20.00;17.67;;;;;14.82;54.03;101540.06;4943506;28;45528;-78
2023/05/20 01:59:14;;;;;;;;;15.00;15.00;;;;;14.95;54.25;101568.28;4960086;28;48156;-79
2023/05/20 02:01:39;;;;;;;;;18.67;13.67;;;;;14.74;53.91;101531.09;4942566;28;45209;-80
2023/05/20 02:04:04;;;;;;;;;20.33;17.33;;;;;15.03;53.80;101565.69;4944632;28;45213;-78
2023/05/20 02:06:30;;;;;;;;;15.67;15.67;;;;;15.00;54.08;101561.44;4961155;28;45277;-80
2023/05/20 02:08:55;;;;;;;;;20.00;18.67;;;;;14.96;54.05;101553.88;4960438;28;46152;-77
2023/05/20 02:11:21;;;;;;;;;17.67;15.33;;;;;15.06;53.85;101562.69;4958890;28;46378;-79
2023/05/20 02:13:46;;;;;;;;;19.00;16.00;;;;;14.87;53.79;101537.75;4960063;28;45560;-78
2023/05/20 02:16:12;;;;;;;;;15.33;14.33;;;;;14.42;54.00;101448.63;4960647;28;45417;-78
2023/05/20 02:18:37;;;;;;;;;17.00;17.00;;;;;14.74;54.15;101521.22;4959583;28;45446;-77
2023/05/20 02:21:04;;;;;;;;;14.33;13.33;;;;;14.81;54.23;101530.31;4942941;28;45317;-78
2023/05/20 02:23:32;;;;;;;;;19.00;17.33;;;;;14.58;54.48;101502.31;4961362;28;45292;-77
2023/05/20 02:25:58;;;;;;;;;16.67;14.33;;;;;14.90;54.46;101550.84;4960891;28;45597;-78
2023/05/20 02:28:23;;;;;;;;;16.00;16.00;;;;;14.89;54.25;101551.81;4942443;28;47426;-77
2023/05/20 02:30:51;;;;;;;;;19.00;18.00;;;;;14.91;54.47;101552.50;4942634;28;45248;-78
2023/05/20 02:33:18;;;;;;;;;22.00;16.00;;;;;15.00;54.29;101565.97;4941633;28;45377;-78
2023/05/20 02:35:43;;;;;;;;;19.33;17.00;;;;;14.22;54.59;101443.41;4961089;28;45498;-77
2023/05/20 02:38:09;;;;;;;;;19.33;17.00;;;;;14.79;54.49;101545.69;4968124;28;46682;-78
2023/05/20 02:40:35;;;;;;;;;22.00;18.33;;;;;14.57;54.51;101505.97;4946612;28;46135;-77
2023/05/20 02:43:00;;;;;;;;;18.00;17.33;;;;;14.93;54.91;101563.06;4942590;28;47072;-82
2023/05/20 02:45:26;;;;;;;;;21.33;19.67;;;;;14.61;54.92;101512.72;4944445;28;45327;-78
2023/05/20 02:47:51;;;;;;;;;20.00;18.67;;;;;14.62;55.18;101527.81;4959368;28;52741;-78
2023/05/20 02:50:17;;;;;;;;;16.67;16.00;;;;;14.53;55.39;101521.50;4942809;28;46641;-77
2023/05/20 02:52:44;;;;;;;;;19.33;16.33;;;;;14.71;55.57;101550.97;4960056;28;45506;-78
2023/05/20 02:55:10;;;;;;;;;17.00;15.67;;;;;14.39;55.69;101494.38;4959959;28;45225;-78
2023/05/20 02:57:39;;;;;;;;;25.33;21.33;;;;;14.48;55.46;101517.59;4941631;28;47869;-79
2023/05/20 03:00:06;;;;;;;;;20.67;19.00;;;;;14.55;55.34;101521.34;4941794;28;45331;-77
2023/05/20 03:02:31;;;;;;;;;25.67;19.67;;;;;14.70;55.53;101538.56;4942062;28;45546;-78
2023/05/20 03:04:57;;;;;;;;;28.00;23.00;;;;;14.56;55.44;101513.16;4960672;28;45164;-77
2023/05/20 03:07:22;;;;;;;;;21.00;19.33;;;;;14.55;56.00;101521.34;4959974;28;45514;-77
2023/05/20 03:09:48;;;;;;;;;18.00;18.00;;;;;14.73;55.41;101543.63;4941670;28;45322;-78
2023/05/20 03:12:13;;;;;;;;;24.67;21.33;;;;;14.12;55.74;101453.31;4938573;28;45486;-78
2023/05/20 03:14:39;;;;;;;;;24.33;21.67;;;;;13.50;56.21;101360.50;4939971;28;45316;-79
2023/05/20 03:17:04;;;;;;;;;21.33;20.33;;;;;14.56;56.16;101541.75;4939630;28;46812;-78
2023/05/20 03:19:30;;;;;;;;;27.67;21.67;;;;;14.42;56.33;101523.53;4938377;28;51706;-79
2023/05/20 03:21:56;;;;;;;;;22.67;18.67;;;;;14.09;56.94;101496.38;4938397;28;45285;-79
2023/05/20 03:24:22;;;;;;;;;27.33;23.67;;;;;14.19;56.97;101520.38;4938863;28;45336;-77
2023/05/20 03:26:47;;;;;;;;;23.00;21.33;;;;;14.00;57.14;101476.72;4939637;28;47522;-77
2023/05/20 03:29:13;;;;;;;;;24.33;22.00;;;;;14.41;57.08;101536.03;4939561;28;45379;-79
2023/05/20 03:31:38;;;;;;;;;23.33;20.67;;;;;14.19;56.78;101505.19;4939649;28;45611;-77
2023/05/20 03:34:04;;;;;;;;;23.00;23.00;;;;;13.86;57.55;101460.34;4939925;28;45290;-78
2023/05/20 03:36:30;;;;;;;;;25.67;22.00;;;;;14.24;57.33;101521.66;4938355;28;48977;-79
2023/05/20 03:38:55;;;;;;;;;24.67;24.00;;;;;14.11;57.39;101494.41;4938072;28;45531;-79
2023/05/20 03:41:21;;;;;;;;;34.67;26.33;;;;;13.25;57.08;101348.69;4938319;28;45386;-78
2023/05/20 03:43:46;;;;;;;;;21.33;18.33;;;;;14.23;56.90;101503.91;4939866;28;45528;-78
2023/05/20 03:46:11;;;;;;;;;19.33;17.67;;;;;14.16;57.36;101491.28;4938812;28;55957;-78
2023/05/20 03:48:37;;;;;;;;;24.00;22.33;;;;;14.24;57.35;101510.13;4939524;28;45533;-77
2023/05/20 03:51:02;;;;;;;;;30.00;28.67;;;;;14.00;57.64;101474.03;4939534;28;45489;-78
2023/05/20 03:53:28;;;;;;;;;28.33;25.33;;;;;13.96;57.70;101486.03;4939732;28;45244;-79
2023/05/20 03:55:53;;;;;;;;;17.00;16.00;;;;;14.04;57.72;101496.00;4938112;28;47447;-78
2023/05/20 03:58:19;;;;;;;;;23.67;20.67;;;;;14.12;57.88;101512.13;4937945;28;48740;-78
2023/05/20 04:00:46;;;;;;;;;23.33;23.33;;;;;14.09;57.91;101501.72;4937912;28;45344;-79
2023/05/20 04:03:11;;;;;;;;;31.00;25.33;;;;;13.96;57.42;101478.00;4939237;28;45496;-78
2023/05/20 04:05:37;;;;;;;;;27.67;22.67;;;;;13.95;57.77;101483.50;4937671;28;47572;-78
2023/05/20 04:08:03;;;;;;;;;26.33;22.33;;;;;14.14;57.84;101503.97;4939142;28;45356;-79
2023/05/20 04:10:30;;;;;;;;;30.00;23.00;;;;;14.24;57.47;101510.13;4938010;28;45617;-78
2023/05/20 04:12:56;;;;;;;;;23.67;22.67;;;;;14.19;57.56;101496.31;4937450;28;45666;-77
2023/05/20 04:15:22;;;;;;;;;19.00;18.33;;;;;14.25;57.84;101507.28;4937147;28;48360;-78
2023/05/20 04:17:49;;;;;;;;;25.33;21.67;;;;;14.12;57.74;101495.25;4937385;28;46592;-79
2023/05/20 04:20:14;;;;;;;;;25.33;23.67;;;;;14.05;57.92;101484.31;4939175;28;45231;-81
2023/05/20 04:22:40;;;;;;;;;21.67;20.00;;;;;14.18;57.51;101491.97;4938864;28;45238;-78
2023/05/20 04:25:06;;;;;;;;;21.67;20.33;;;;;14.17;57.82;101488.44;4938785;28;45670;-78
2023/05/20 04:27:36;;;;;;;;;35.67;23.67;;;;;13.09;57.83;101320.72;4940045;28;45316;-79
2023/05/20 04:30:02;;;;;;;;;29.00;25.00;;;;;14.24;57.79;101507.44;4938380;28;45524;-78
2023/05/20 04:32:28;;;;;;;;;27.00;22.00;;;;;13.68;57.67;101425.53;4939104;28;45444;-79
2023/05/20 04:34:54;;;;;;;;;30.33;27.67;;;;;13.89;57.84;101457.38;4937602;28;47690;-76
2023/05/20 04:37:21;;;;;;;;;27.33;24.67;;;;;13.86;58.15;101466.53;4940084;28;45268;-78
2023/05/20 04:39:48;;;;;;;;;32.00;26.00;;;;;13.87;57.98;101470.88;4939323;28;45471;-78
2023/05/20 04:42:14;;;;;;;;;28.33;23.33;;;;;13.97;58.29;101482.34;4938864;28;45585;-78
2023/05/20 04:44:39;;;;;;;;;33.67;28.33;;;;;13.96;58.47;101486.03;4938169;28;46389;-80
2023/05/20 04:47:06;;;;;;;;;23.67;23.33;;;;;14.03;58.43;101485.44;4938478;28;45327;-79
2023/05/20 04:49:32;;;;;;;;;31.33;28.67;;;;;13.97;57.94;101490.38;4938134;28;45466;-78
2023/05/20 04:51:58;;;;;;;;;24.00;20.67;;;;;13.91;58.90;101484.78;4938620;28;45288;-78
2023/05/20 04:54:24;;;;;;;;;28.00;25.33;;;;;13.85;58.42;101467.53;4936807;28;47525;-78
2023/05/20 04:56:49;;;;;;;;;34.33;29.00;;;;;13.98;58.56;101488.53;4938642;28;45284;-78
2023/05/20 04:59:15;;;;;;;;;25.67;23.33;;;;;13.85;58.34;101462.19;4940431;28;45253;-79
2023/05/20 05:01:40;;;;;;;;;23.67;22.67;;;;;14.06;58.34;101485.16;4942354;28;46213;-79
2023/05/20 05:04:06;;;;;;;;;29.00;27.00;;;;;13.69;58.17;101420.03;4946999;28;45442;-80
2023/05/20 05:06:31;;;;;;;;;33.33;26.33;;;;;14.16;58.08;101494.78;4946147;28;45353;-80
2023/05/20 05:08:57;;;;;;;;;27.00;26.33;;;;;13.99;58.38;101472.34;4944962;28;45382;-78
2023/05/20 05:11:22;;;;;;;;;28.00;25.00;;;;;14.10;58.31;101505.25;4943855;28;45451;-79
2023/05/20 05:13:47;;;;;;;;;28.67;24.67;;;;;13.96;58.55;101477.16;4960006;28;45527;-79
2023/05/20 05:16:13;;;;;;;;;32.33;26.67;;;;;13.93;58.69;101477.47;4942115;28;46524;-79
2023/05/20 05:18:38;;;;;;;;;30.67;28.00;;;;;13.99;58.39;101482.22;4959059;28;45972;-79
2023/05/20 05:21:05;;;;;;;;;30.00;27.67;;;;;13.98;58.59;101480.53;4943523;28;45545;-79
2023/05/20 05:23:31;;;;;;;;;32.00;26.67;;;;;13.89;58.58;101452.88;4942941;28;47708;-78
2023/05/20 05:25:57;;;;;;;;;31.67;27.00;;;;;14.20;58.31;101493.50;4961139;28;45277;-78
2023/05/20 05:28:23;;;;;;;;;24.00;21.33;;;;;14.23;57.96;101493.22;4944749;28;45369;-78
2023/05/20 05:30:48;;;;;;;;;32.00;26.00;;;;;14.25;57.93;101491.25;4962667;28;45344;-78
2023/05/20 05:33:14;;;;;;;;;27.67;26.33;;;;;14.38;58.03;101496.22;4960569;28;46696;-79
2023/05/20 05:35:41;;;;;;;;;29.00;23.67;;;;;14.34;57.66;101477.94;4942564;28;46203;-78
2023/05/20 05:38:06;;;;;;;;;27.00;24.00;;;;;14.31;57.64;101469.22;4960019;28;45527;-79
2023/05/20 05:40:31;;;;;;;;;35.00;25.67;;;;;14.36;57.33;101470.59;4943373;28;45521;-79
2023/05/20 05:42:57;;;;;;;;;28.67;24.00;;;;;14.50;57.29;101494.22;4943072;28;47322;-80
2023/05/20 05:45:22;;;;;;;;;33.67;28.33;;;;;14.55;57.55;101499.94;4942375;28;45585;-80
2023/05/20 05:47:47;;;;;;;;;29.00;26.33;;;;;14.53;57.37;101493.91;4941691;28;45327;-77
2023/05/20 05:50:13;;;;;;;;;31.33;27.00;;;;;14.62;57.25;101495.69;4945622;28;45351;-78
2023/05/20 05:52:38;;;;;;;;;27.67;26.67;;;;;14.34;57.21;101451.19;4960411;28;45552;-78
2023/05/20 05:55:04;;;;;;;;;32.00;25.67;;;;;14.06;57.20;101404.94;4960246;28;45451;-80
2023/05/20 05:57:29;;;;;;;;;34.33;30.00;;;;;14.53;57.38;101488.56;4960091;28;45422;-80
2023/05/20 05:59:54;;;;;;;;;30.67;29.00;;;;;14.38;57.56;101463.25;4959279;28;45630;-78
2023/05/20 06:02:21;;;;;;;;;29.33;27.67;;;;;14.42;57.36;101475.38;4943094;28;47789;-79
2023/05/20 06:04:46;;;;;;;;;27.33;25.67;;;;;14.53;57.25;101475.16;4960272;28;45280;-81
2023/05/20 06:07:11;;;;;;;;;26.33;23.33;;;;;14.66;57.04;101482.84;4943169;28;45279;-79
2023/05/20 06:09:37;;;;;;;;;33.00;28.33;;;;;14.03;57.34;101379.34;4961303;28;45214;-78
2023/05/20 06:12:03;;;;;;;;;29.00;27.00;;;;;14.25;57.17;101408.31;4959640;28;45633;-78
2023/05/20 06:14:28;;;;;;;;;30.00;26.00;;;;;14.80;56.72;101474.25;4959515;28;45432;-78
2023/05/20 06:16:54;;;;;;;;;23.00;20.33;;;;;14.68;56.78;101454.91;4960084;28;45367;-79
2023/05/20 06:19:19;;;;;;;;;27.33;25.33;;;;;14.79;56.65;101468.06;4942635;28;45454;-80
2023/05/20 06:21:44;;;;;;;;;32.67;25.00;;;;;14.76;56.47;101471.03;4959782;28;49326;-79
2023/05/20 06:24:10;;;;;;;;;34.67;32.67;;;;;14.74;56.73;101481.06;4941747;28;46257;-79
2023/05/20 06:26:35;;;;;;;;;29.67;21.33;;;;;14.75;56.63;101472.03;4939576;28;45426;-76
2023/05/20 06:29:02;;;;;;;;;25.33;22.00;;;;;14.71;56.62;101454.63;4958824;28;45694;-79
2023/05/20 06:31:28;;;;;;;;;28.33;28.33;;;;;14.86;56.37;101474.50;4961125;28;46474;-79
2023/05/20 06:33:54;;;;;;;;;26.00;26.00;;;;;14.36;55.90;101374.31;4954700;28;46664;-79
2023/05/20 06:36:20;;;;;;;;;25.33;25.33;;;;;15.02;56.02;101464.94;4957621;28;45457;-78
2023/05/20 06:38:45;;;;;;;;;25.00;23.00;;;;;15.17;55.74;101471.38;4942635;28;45277;-79
2023/05/20 06:41:11;;;;;;;;;28.00;24.67;;;;;15.03;55.61;101439.81;4940022;28;48451;-80
2023/05/20 06:43:36;;;;;;;;;28.67;28.33;;;;;14.76;55.44;101373.84;4942789;28;45395;-81
2023/05/20 06:46:01;;;;;;;;;21.00;19.00;;;;;15.41;55.17;101451.94;4942843;28;45303;-76
2023/05/20 06:48:27;;;;;;;;;32.00;27.00;;;;;15.51;54.72;101466.94;4942591;28;45486;-78
2023/05/20 06:50:52;;;;;;;;;27.33;24.00;;;;;15.41;54.91;101439.38;4944193;28;48776;-79
2023/05/20 06:53:17;;;;;;;;;29.67;27.33;;;;;15.12;54.29;101367.41;4944351;28;46019;-78
2023/05/20 06:55:43;;;;;;;;;33.00;26.67;;;;;15.62;54.20;101448.94;4930456;28;45503;-74
2023/05/20 06:58:08;;;;;;;;;26.00;19.00;;;;;15.87;54.18;101466.81;4953175;28;45715;-76
2023/05/20 07:00:34;;;;;;;;;29.67;27.67;;;;;15.97;53.46;101458.63;4959437;28;46832;-76
2023/05/20 07:02:59;;;;;;;;;27.00;23.67;;;;;15.73;52.99;101389.66;4941367;28;45829;-76
2023/05/20 07:05:26;;;;;;;;;22.33;20.67;;;;;16.41;52.88;101459.25;4956888;28;45317;-74
2023/05/20 07:07:51;;;;;;;;;27.00;24.67;;;;;16.48;52.17;101451.41;4940012;28;45689;-76
2023/05/20 07:10:17;;;;;;;;;31.00;26.00;;;;;16.67;52.11;101465.41;4939498;28;47551;-75
2023/05/20 07:12:42;;;;;;;;;28.33;24.67;;;;;16.72;51.58;101455.00;4958080;28;45739;-78
2023/05/20 07:15:08;;;;;;;;;29.67;25.67;;;;;17.00;51.38;101452.81;4939929;28;46508;-73
2023/05/20 07:17:33;;;;;;;;;28.67;25.67;;;;;17.31;50.13;101447.56;4939173;28;45581;-75
2023/05/20 07:19:59;;;;;;;;;24.67;21.33;;;;;17.28;49.94;101418.34;4957896;28;46274;-75
2023/05/20 07:22:25;;;;;;;;;26.67;24.67;;;;;17.85;49.35;101452.34;4941176;28;45459;-77
2023/05/20 07:24:50;;;;;;;;;26.00;23.67;;;;;17.90;48.29;101412.28;4941077;28;45509;-77
2023/05/20 07:27:15;;;;;;;;;31.33;28.33;;;;;18.36;47.68;101441.97;4941011;28;45312;-77
2023/05/20 07:29:41;;;;;;;;;23.33;22.00;;;;;18.61;47.38;101431.88;4951983;28;45825;-77
2023/05/20 07:32:08;;;;;;;;;19.67;19.67;;;;;18.24;46.79;101320.44;4941256;28;46336;-79
2023/05/20 07:34:34;;;;;;;;;24.67;22.00;;;;;19.24;45.92;101445.00;4960735;28;45360;-76
2023/05/20 07:37:00;;;;;;;;;23.00;19.33;;;;;19.52;45.22;101445.22;4959293;28;45309;-78
2023/05/20 07:39:25;;;;;;;;;26.67;24.00;;;;;19.85;44.68;101439.47;4940075;28;47552;-73
2023/05/20 07:41:51;;;;;;;;;21.00;19.00;;;;;20.42;43.61;101427.91;4958451;28;45259;-78
2023/05/20 07:44:17;;;;;;;;;23.33;22.67;;;;;20.72;42.10;101444.84;4958911;28;45475;-76
2023/05/20 07:46:43;;;;;;;;;22.33;22.33;;;;;20.84;41.62;101446.84;4959672;28;45411;-77
2023/05/20 07:49:09;;;;;;;;;26.67;24.00;;;;;21.03;41.92;101422.88;4958862;28;45685;-80
2023/05/20 07:51:35;;;;;;;;;21.33;18.33;;;;;21.73;40.47;101427.31;4942124;28;45632;-80
2023/05/20 07:54:00;;;;;;;;;20.33;20.33;;;;;22.25;39.35;101398.78;4939117;28;45363;-77
2023/05/20 07:56:27;;;;;;;;;25.00;23.33;;;;;22.62;38.09;101406.34;4941012;28;45406;-78
2023/05/20 07:58:57;;;;;;;;;27.00;23.00;;;;;22.87;38.14;101413.91;4958163;28;46002;-77
2023/05/20 08:01:23;;;;;;;;;26.33;23.67;;;;;22.97;37.52;101408.88;4941315;28;45439;-78
2023/05/20 08:03:48;;;;;;;;;25.33;23.00;;;;;23.02;36.73;101425.34;4959299;28;45326;-74
2023/05/20 08:06:14;;;;;;;;;22.33;19.00;;;;;22.96;37.38;101420.78;4941016;28;45560;-76
2023/05/20 08:08:40;;;;;;;;;19.33;17.33;;;;;23.13;37.49;101408.47;4939895;28;47606;-76
2023/05/20 08:11:06;;;;;;;;;25.00;24.67;;;;;23.22;36.54;101380.06;4950919;28;45518;-76
2023/05/20 08:13:32;;;;;;;;;20.33;20.33;;;;;23.61;36.20;101413.59;4936308;28;45591;-75
2023/05/20 08:15:57;;;;;;;;;27.33;23.33;;;;;23.83;35.74;101390.56;4958313;28;45408;-76
2023/05/20 08:18:23;;;;;;;;;24.33;17.33;;;;;24.45;35.76;101407.19;4958113;28;45714;-76
2023/05/20 08:20:48;;;;;;;;;17.67;16.00;;;;;24.90;34.31;101394.28;4956402;28;45353;-76
2023/05/20 08:23:13;;;;;;;;;26.67;20.67;;;;;25.29;33.56;101370.50;4940904;28;45589;-78
2023/05/20 08:25:39;;;;;;;;;23.33;19.00;;;;;25.83;32.01;101376.97;4956931;28;47929;-80
2023/05/20 08:28:05;;;;;;;;;20.67;19.67;;;;;25.85;32.13;101331.31;4934505;28;47619;-77
2023/05/20 08:30:32;;;;;;;;;26.00;19.67;;;;;26.42;30.91;101375.34;4948693;28;45402;-79
2023/05/20 08:32:57;;;;;;;;;18.67;17.67;;;;;26.42;30.44;101354.34;4947095;28;45324;-79
2023/05/20 08:35:23;;;;;;;;;18.33;18.33;;;;;26.76;29.91;101360.94;4942384;28;45361;-78
2023/05/20 08:37:48;;;;;;;;;16.33;14.67;;;;;26.83;30.32;101399.88;4956455;28;47370;-77
2023/05/20 08:40:14;;;;;;;;;21.33;18.00;;;;;27.21;29.93;101363.91;4957416;28;45533;-77
2023/05/20 08:42:42;;;;;;;;;19.00;18.00;;;;;27.67;29.37;101383.22;4954887;28;46468;-77
2023/05/20 08:45:10;;;;;;;;;22.67;20.00;;;;;27.49;28.16;101294.88;4951631;28;45539;-74
2023/05/20 08:47:40;;;;;;;;;19.00;19.00;;;;;28.27;28.72;101380.06;4954743;28;49226;-73
2023/05/20 08:50:07;;;;;;;;;16.33;15.33;;;;;28.64;27.90;101366.75;4954985;28;45320;-75
2023/05/20 08:52:33;;;;;;;;;11.00;9.33;;;;;28.28;27.84;101359.84;4938114;28;45214;-74
2023/05/20 08:55:00;;;;;;;;;16.67;16.33;;;;;28.36;27.81;101359.41;4958419;28;45172;-74
2023/05/20 08:57:26;;;;;;;;;19.33;14.33;;;;;28.33;28.13;101354.44;4955037;28;45529;-75
2023/05/20 08:59:52;;;;;;;;;14.00;13.00;;;;;28.62;27.29;101353.28;4937908;28;45593;-74
2023/05/20 09:02:17;;;;;;;;;21.67;17.00;;;;;28.91;26.84;101340.38;4958249;28;45454;-76
2023/05/20 09:04:42;;;;;;;;;15.33;15.33;;;;;29.37;26.51;101333.59;4956441;28;45357;-76
2023/05/20 09:07:08;;;;;;;;;17.67;16.67;;;;;30.11;25.35;101365.22;4940661;28;48134;-76
2023/05/20 09:09:34;;;;;;;;;17.33;17.00;;;;;30.66;25.26;101358.59;4939181;28;45277;-75
2023/05/20 09:12:01;;;;;;;;;18.00;16.33;;;;;31.06;25.05;101347.91;4937164;28;45422;-76
2023/05/20 09:14:27;;;;;;;;;16.33;14.33;;;;;31.60;23.96;101341.28;4938545;28;45624;-74
2023/05/20 09:16:53;;;;;;;;;14.67;14.00;;;;;31.58;22.97;101325.06;4937155;28;45767;-76
2023/05/20 09:19:22;;;;;;;;;17.67;16.33;;;;;32.16;23.71;101339.53;4932708;28;45573;-78
2023/05/20 09:21:53;;;;;;;;;15.00;14.00;;;;;32.45;22.44;101289.50;4934496;28;45390;-75
2023/05/20 09:24:25;;;;;;;;;12.00;11.33;;;;;33.17;21.81;101329.56;4934108;28;45471;-75
2023/05/20 09:26:51;;;;;;;;;15.33;13.67;;;;;33.58;20.93;101303.50;4936377;28;46051;-74
2023/05/20 09:29:20;;;;;;;;;12.00;10.67;;;;;34.33;19.80;101330.03;4952409;28;45644;-76
2023/05/20 09:31:45;;;;;;;;;12.33;11.00;;;;;34.50;20.35;101305.63;4933209;28;45558;-76
2023/05/20 09:34:11;;;;;;;;;9.00;9.00;;;;;34.79;20.04;101316.66;4933506;28;45524;-75
2023/05/20 09:36:38;;;;;;;;;11.00;11.00;;;;;35.63;18.36;101308.75;4936114;28;46879;-77
2023/05/20 09:39:06;;;;;;;;;10.00;9.67;;;;;35.61;18.63;101288.88;4934054;28;45489;-77
2023/05/20 09:41:37;;;;;;;;;10.33;10.33;;;;;35.85;18.39;101322.88;4928394;28;45486;-75
2023/05/20 09:44:03;;;;;;;;;10.67;10.33;;;;;35.28;17.85;101269.41;4932516;28;45695;-74
2023/05/20 09:46:30;;;;;;;;;11.33;9.33;;;;;34.96;18.77;101258.19;4937543;28;48648;-77
2023/05/20 09:48:55;;;;;;;;;11.67;10.33;;;;;34.67;19.08;101264.59;4925317;28;45491;-78
2023/05/20 09:51:22;;;;;;;;;12.33;12.33;;;;;34.93;19.07;101300.25;4928727;28;45260;-76
2023/05/20 09:53:50;;;;;;;;;10.00;9.00;;;;;34.56;19.69;101312.75;4934970;28;45412;-74
2023/05/20 09:56:18;;;;;;;;;7.67;7.67;;;;;34.46;19.38;101285.25;4949881;28;47359;-77
2023/05/20 09:58:44;;;;;;;;;10.67;10.00;;;;;33.56;20.18;101286.41;4938099;28;45704;-77
2023/05/20 10:01:10;;;;;;;;;8.50;8.50;;;;;32.58;21.28;101288.91;4940674;28;45332;-76
2023/05/20 10:03:35;;;;;;;;;9.00;9.00;;;;;30.91;22.67;101237.97;4931889;28;45317;-76
2023/05/20 10:06:25;;;;;;;;;8.00;7.67;;;;;30.18;23.74;101287.09;4933553;28;46778;-77
2023/05/20 10:09:25;;;;;;;;;10.00;7.33;;;;;29.12;24.31;101286.72;4938248;28;45371;-79
2023/05/20 10:12:10;;;;;;;;;6.00;5.00;;;;;28.18;26.20;101289.34;4911904;28;45471;-74
2023/05/20 10:14:57;;;;;;;;;10.67;10.67;;;;;27.25;27.19;101291.41;4941283;28;45520;-76
2023/05/20 10:17:36;;;;;;;;;10.00;9.33;;;;;26.35;28.42;101289.03;4938990;28;48021;-72
2023/05/20 10:20:03;;;;;;;;;8.33;7.33;;;;;24.91;28.95;101175.63;4924547;28;45642;-74
2023/05/20 10:22:30;;;;;;;;;10.67;10.67;;;;;24.94;30.31;101274.97;4940730;28;45403;-73
2023/05/20 10:25:00;;;;;;;;;10.00;10.00;;;;;24.67;31.16;101297.00;4921892;28;45562;-74
2023/05/20 10:27:25;;;;;;;;;12.33;11.33;;;;;24.15;31.66;101261.03;4940078;28;45830;-74
2023/05/20 10:29:54;;;;;;;;;11.00;10.00;;;;;23.64;32.07;101282.91;4930282;28;46839;-76
2023/05/20 10:32:30;;;;;;;;;13.00;11.33;;;;;23.16;33.40;101299.53;4940310;28;45491;-73
2023/05/20 10:35:04;;;;;;;;;6.00;6.00;;;;;22.71;33.82;101285.84;4936303;28;45561;-73
2023/05/20 10:37:40;;;;;;;;;9.00;8.00;;;;;22.39;34.45;101270.44;4956871;28;46482;-73
2023/05/20 10:40:13;;;;;;;;;8.33;8.33;;;;;22.42;34.30;101259.16;4957593;28;45581;-72
2023/05/20 10:42:39;;;;;;;;;9.33;9.33;;;;;22.28;35.04;101257.53;4958050;28;45406;-72
2023/05/20 10:45:08;;;;;;;;;9.00;9.00;;;;;22.26;35.59;101274.00;4942127;28;45494;-81
2023/05/20 10:47:34;;;;;;;;;8.00;8.00;;;;;22.11;35.46;101268.75;4955796;28;45774;-75
2023/05/20 10:50:04;;;;;;;;;8.00;8.00;;;;;21.82;35.91;101260.97;4940184;28;45771;-73
2023/05/20 10:52:35;;;;;;;;;9.33;7.67;;;;;21.75;35.66;101273.66;4959387;28;45498;-73
2023/05/20 10:55:01;;;;;;;;;7.67;7.33;;;;;21.72;36.11;101257.84;4940896;28;45317;-73
2023/05/20 10:57:27;;;;;;;;;10.33;10.33;;;;;21.61;36.59;101261.13;4959102;28;46017;-73
2023/05/20 10:59:53;;;;;;;;;8.00;8.00;;;;;21.46;36.16;101228.84;4959027;28;45380;-70
2023/05/20 11:02:25;;;;;;;;;12.00;11.00;;;;;21.42;36.95;101239.22;4959131;28;45517;-73
2023/05/20 11:04:52;;;;;;;;;8.00;8.00;;;;;21.53;37.16;101276.50;4959016;28;45391;-74
2023/05/20 11:07:30;;;;;;;;;8.00;8.00;;;;;21.48;36.51;101264.63;4958969;28;46574;-73